Terminal Aerodrome Forecast
Issued by NWS

Home | Current Version | Previous Version | Text Only | Print | Product List | Glossary On
Versions: 1 2 3 4 5 6 7 8 9 10 11 12 13 14 15 16 17 18 19 20 21 22 23
000
FTPA31 PHFO 241748
TAFHTO
TAF
PHTO 241748Z 2418/2518 25006KT 5SM -SHRA SCT012 OVC020
      TEMPO 2418/2421 3SM SHRA BR
     FM242200 09011KT P6SM VCSH SCT025 BKN045
     FM250600 VRB06KT P6SM SCT020 SCT045
      AMD LTD TO VIS AND WIND=

USA.gov is the U.S. government's official web portal to all federal, state and local government web resources and services.